sensor_id;sensor_type;location;lat;lon;timestamp;pressure;altitude;pressure_sealevel;temperature;humidity
8894;BME280;4483;48.622;9.230;2024-01-11T00:01:19;98839.25;;;-4.23;91.97
8894;BME280;4483;48.622;9.230;2024-01-11T00:03:47;98838.34;;;-4.25;91.12
8894;BME280;4483;48.622;9.230;2024-01-11T00:06:14;98841.75;;;-4.23;91.81
8894;BME280;4483;48.622;9.230;2024-01-11T00:08:41;98842.59;;;-4.23;90.92
8894;BME280;4483;48.622;9.230;2024-01-11T00:11:07;98840.94;;;-4.22;91.43
8894;BME280;4483;48.622;9.230;2024-01-11T00:13:34;98840.13;;;-4.21;91.04
8894;BME280;4483;48.622;9.230;2024-01-11T00:16:01;98839.34;;;-4.20;90.92
8894;BME280;4483;48.622;9.230;2024-01-11T00:18:27;98833.44;;;-4.21;91.63
8894;BME280;4483;48.622;9.230;2024-01-11T00:20:55;98835.94;;;-4.21;91.49
8894;BME280;4483;48.622;9.230;2024-01-11T00:23:22;98836.78;;;-4.22;92.36
8894;BME280;4483;48.622;9.230;2024-01-11T00:25:49;98840.06;;;-4.23;92.02
8894;BME280;4483;48.622;9.230;2024-01-11T00:28:15;98842.53;;;-4.24;91.79
8894;BME280;4483;48.622;9.230;2024-01-11T00:30:42;98843.44;;;-4.22;92.23
8894;BME280;4483;48.622;9.230;2024-01-11T00:33:09;98852.56;;;-4.26;91.82
8894;BME280;4483;48.622;9.230;2024-01-11T00:35:35;98861.66;;;-4.29;91.73
8894;BME280;4483;48.622;9.230;2024-01-11T00:38:03;98860.81;;;-4.30;91.34
8894;BME280;4483;48.622;9.230;2024-01-11T00:40:30;98852.31;;;-4.33;91.28
8894;BME280;4483;48.622;9.230;2024-01-11T00:42:57;98858.94;;;-4.35;92.31
8894;BME280;4483;48.622;9.230;2024-01-11T00:45:23;98850.47;;;-4.37;92.10
8894;BME280;4483;48.622;9.230;2024-01-11T00:47:50;98850.47;;;-4.37;91.74
8894;BME280;4483;48.622;9.230;2024-01-11T00:50:17;98847.06;;;-4.39;92.43
8894;BME280;4483;48.622;9.230;2024-01-11T00:52:43;98849.56;;;-4.39;92.25
8894;BME280;4483;48.622;9.230;2024-01-11T00:55:11;98852.88;;;-4.42;92.30
8894;BME280;4483;48.622;9.230;2024-01-11T00:57:38;98856.97;;;-4.44;92.06
8894;BME280;4483;48.622;9.230;2024-01-11T01:00:06;98858.53;;;-4.47;91.47
8894;BME280;4483;48.622;9.230;2024-01-11T01:02:33;98858.53;;;-4.47;92.49
8894;BME280;4483;48.622;9.230;2024-01-11T01:04:59;98858.53;;;-4.47;91.81
8894;BME280;4483;48.622;9.230;2024-01-11T01:07:26;98855.13;;;-4.49;92.48
8894;BME280;4483;48.622;9.230;2024-01-11T01:09:52;98859.22;;;-4.51;91.61
8894;BME280;4483;48.622;9.230;2024-01-11T01:12:20;98849.09;;;-4.54;92.79
8894;BME280;4483;48.622;9.230;2024-01-11T01:14:47;98858.22;;;-4.56;92.61
8894;BME280;4483;48.622;9.230;2024-01-11T01:17:14;98854.03;;;-4.56;92.50
8894;BME280;4483;48.622;9.230;2024-01-11T01:19:40;98857.41;;;-4.55;92.66
8894;BME280;4483;48.622;9.230;2024-01-11T01:22:07;98853.06;;;-4.59;91.93
8894;BME280;4483;48.622;9.230;2024-01-11T01:24:33;98857.38;;;-4.57;92.55
8894;BME280;4483;48.622;9.230;2024-01-11T01:27:00;98867.38;;;-4.58;92.44
8894;BME280;4483;48.622;9.230;2024-01-11T01:29:28;98868.97;;;-4.60;92.03
8894;BME280;4483;48.622;9.230;2024-01-11T01:31:55;98863.91;;;-4.62;92.93
8894;BME280;4483;48.622;9.230;2024-01-11T01:34:21;98863.78;;;-4.65;92.22
8894;BME280;4483;48.622;9.230;2024-01-11T01:36:48;98863.59;;;-4.71;92.47
8894;BME280;4483;48.622;9.230;2024-01-11T01:39:14;98859.97;;;-4.77;91.70
8894;BME280;4483;48.622;9.230;2024-01-11T01:41:42;98864.03;;;-4.81;92.88
8894;BME280;4483;48.622;9.230;2024-01-11T01:44:08;98861.59;;;-4.79;92.63
8894;BME280;4483;48.622;9.230;2024-01-11T01:46:37;98859.94;;;-4.79;92.48
8894;BME280;4483;48.622;9.230;2024-01-11T01:49:04;98869.25;;;-4.76;92.20
8894;BME280;4483;48.622;9.230;2024-01-11T01:51:31;98869.25;;;-4.76;92.45
8894;BME280;4483;48.622;9.230;2024-01-11T01:54:00;98868.34;;;-4.78;91.97
8894;BME280;4483;48.622;9.230;2024-01-11T01:56:28;98876.63;;;-4.81;92.54
8894;BME280;4483;48.622;9.230;2024-01-11T01:58:55;98880.78;;;-4.81;92.09
8894;BME280;4483;48.622;9.230;2024-01-11T02:01:22;98873.78;;;-4.90;92.45
8894;BME280;4483;48.622;9.230;2024-01-11T02:03:52;98872.75;;;-4.95;92.29
8894;BME280;4483;48.622;9.230;2024-01-11T02:06:22;98875.22;;;-4.96;92.56
8894;BME280;4483;48.622;9.230;2024-01-11T02:08:52;98879.44;;;-4.95;92.29
8894;BME280;4483;48.622;9.230;2024-01-11T02:11:20;98889.50;;;-4.95;92.61
8894;BME280;4483;48.622;9.230;2024-01-11T02:13:46;98898.75;;;-4.94;92.63
8894;BME280;4483;48.622;9.230;2024-01-11T02:16:13;98889.53;;;-4.94;92.73
8894;BME280;4483;48.622;9.230;2024-01-11T02:18:40;98887.94;;;-4.92;93.02
8894;BME280;4483;48.622;9.230;2024-01-11T02:21:09;98898.00;;;-4.92;93.64
8894;BME280;4483;48.622;9.230;2024-01-11T02:23:54;98892.97;;;-4.92;92.85
8894;BME280;4483;48.622;9.230;2024-01-11T02:26:20;98897.91;;;-4.95;92.75
8894;BME280;4483;48.622;9.230;2024-01-11T02:28:47;98888.56;;;-4.97;93.12
8894;BME280;4483;48.622;9.230;2024-01-11T02:31:14;98889.38;;;-4.98;92.79
8894;BME280;4483;48.622;9.230;2024-01-11T02:33:42;98890.16;;;-4.99;93.14
8894;BME280;4483;48.622;9.230;2024-01-11T02:36:08;98884.31;;;-5.00;93.02
8894;BME280;4483;48.622;9.230;2024-01-11T02:38:35;98885.09;;;-5.01;92.48
8894;BME280;4483;48.622;9.230;2024-01-11T02:41:05;98890.13;;;-5.01;92.73
8894;BME280;4483;48.622;9.230;2024-01-11T02:43:31;98884.22;;;-5.01;92.39
8894;BME280;4483;48.622;9.230;2024-01-11T02:45:58;98882.59;;;-5.01;92.42
8894;BME280;4483;48.622;9.230;2024-01-11T02:48:27;98881.56;;;-5.06;92.76
8894;BME280;4483;48.622;9.230;2024-01-11T02:50:55;98882.44;;;-5.05;93.01
8894;BME280;4483;48.622;9.230;2024-01-11T02:53:22;98886.63;;;-5.04;92.93
8894;BME280;4483;48.622;9.230;2024-01-11T02:55:49;98893.31;;;-5.05;93.22
8894;BME280;4483;48.622;9.230;2024-01-11T02:58:17;98895.78;;;-5.06;92.73
8894;BME280;4483;48.622;9.230;2024-01-11T03:00:44;98890.66;;;-5.09;92.98
8894;BME280;4483;48.622;9.230;2024-01-11T03:03:11;98892.25;;;-5.12;92.55
8894;BME280;4483;48.622;9.230;2024-01-11T03:05:37;98888.63;;;-5.18;92.97
8894;BME280;4483;48.622;9.230;2024-01-11T03:08:05;98893.59;;;-5.20;92.70
8894;BME280;4483;48.622;9.230;2024-01-11T03:10:31;98893.56;;;-5.21;92.90
8894;BME280;4483;48.622;9.230;2024-01-11T03:12:58;98883.34;;;-5.26;92.82
8894;BME280;4483;48.622;9.230;2024-01-11T03:15:26;98872.25;;;-5.31;92.68
8894;BME280;4483;48.622;9.230;2024-01-11T03:17:52;98883.97;;;-5.31;92.52
8894;BME280;4483;48.622;9.230;2024-01-11T03:20:19;98878.09;;;-5.32;93.09
8894;BME280;4483;48.622;9.230;2024-01-11T03:22:49;98880.69;;;-5.29;93.08
8894;BME280;4483;48.622;9.230;2024-01-11T03:25:16;98878.19;;;-5.29;93.16
8894;BME280;4483;48.622;9.230;2024-01-11T03:27:43;98877.28;;;-5.31;92.68
8894;BME280;4483;48.622;9.230;2024-01-11T03:30:10;98875.56;;;-5.32;93.03
8894;BME280;4483;48.622;9.230;2024-01-11T03:32:38;98873.75;;;-5.36;92.54
8894;BME280;4483;48.622;9.230;2024-01-11T03:35:05;98869.53;;;-5.37;93.03
8894;BME280;4483;48.622;9.230;2024-01-11T03:37:32;98866.16;;;-5.37;93.33
8894;BME280;4483;48.622;9.230;2024-01-11T03:39:59;98865.28;;;-5.38;93.25
8894;BME280;4483;48.622;9.230;2024-01-11T03:42:25;98867.81;;;-5.38;92.96
8894;BME280;4483;48.622;9.230;2024-01-11T03:44:52;98873.63;;;-5.39;93.18
8894;BME280;4483;48.622;9.230;2024-01-11T03:47:19;98871.91;;;-5.40;92.57
8894;BME280;4483;48.622;9.230;2024-01-11T03:49:47;98869.28;;;-5.43;92.76
8894;BME280;4483;48.622;9.230;2024-01-11T03:52:13;98870.06;;;-5.44;92.85
8894;BME280;4483;48.622;9.230;2024-01-11T03:54:40;98859.16;;;-5.46;92.94
8894;BME280;4483;48.622;9.230;2024-01-11T03:57:07;98869.19;;;-5.46;92.89
8894;BME280;4483;48.622;9.230;2024-01-11T03:59:33;98866.59;;;-5.47;93.11
8894;BME280;4483;48.622;9.230;2024-01-11T04:02:00;98854.13;;;-5.46;93.41
8894;BME280;4483;48.622;9.230;2024-01-11T04:04:27;98854.13;;;-5.46;92.66
8894;BME280;4483;48.622;9.230;2024-01-11T04:06:55;98860.78;;;-5.46;92.27
8894;BME280;4483;48.622;9.230;2024-01-11T04:09:21;98867.41;;;-5.48;92.77
8894;BME280;4483;48.622;9.230;2024-01-11T04:11:48;98858.16;;;-5.49;92.45
8894;BME280;4483;48.622;9.230;2024-01-11T04:14:14;98856.44;;;-5.50;93.17
8894;BME280;4483;48.622;9.230;2024-01-11T04:16:41;98853.00;;;-5.52;92.68
8894;BME280;4483;48.622;9.230;2024-01-11T04:19:08;98859.63;;;-5.54;92.60
8894;BME280;4483;48.622;9.230;2024-01-11T04:21:35;98861.28;;;-5.55;92.65
8894;BME280;4483;48.622;9.230;2024-01-11T04:24:05;98858.75;;;-5.55;92.70
8894;BME280;4483;48.622;9.230;2024-01-11T04:26:32;98855.41;;;-5.55;92.65
8894;BME280;4483;48.622;9.230;2024-01-11T04:28:59;98862.91;;;-5.57;92.18
8894;BME280;4483;48.622;9.230;2024-01-11T04:31:26;98866.91;;;-5.60;92.54
8894;BME280;4483;48.622;9.230;2024-01-11T04:33:51;98860.88;;;-5.65;92.96
8894;BME280;4483;48.622;9.230;2024-01-11T04:36:18;98868.47;;;-5.64;92.09
8894;BME280;4483;48.622;9.230;2024-01-11T04:38:45;98861.69;;;-5.66;92.30
8894;BME280;4483;48.622;9.230;2024-01-11T04:41:14;98854.09;;;-5.68;92.72
8894;BME280;4483;48.622;9.230;2024-01-11T04:43:41;98862.41;;;-5.69;92.56
8894;BME280;4483;48.622;9.230;2024-01-11T04:46:15;98861.53;;;-5.69;93.05
8894;BME280;4483;48.622;9.230;2024-01-11T04:48:42;98864.81;;;-5.72;92.43
8894;BME280;4483;48.622;9.230;2024-01-11T04:51:09;98862.31;;;-5.72;92.50
8894;BME280;4483;48.622;9.230;2024-01-11T04:53:37;98863.94;;;-5.72;92.62
8894;BME280;4483;48.622;9.230;2024-01-11T04:56:03;98862.25;;;-5.73;92.59
8894;BME280;4483;48.622;9.230;2024-01-11T04:58:31;98862.31;;;-5.72;92.61
8894;BME280;4483;48.622;9.230;2024-01-11T05:00:58;98861.44;;;-5.72;92.99
8894;BME280;4483;48.622;9.230;2024-01-11T05:03:24;98856.41;;;-5.72;92.98
8894;BME280;4483;48.622;9.230;2024-01-11T05:05:51;98863.09;;;-5.73;92.45
8894;BME280;4483;48.622;9.230;2024-01-11T05:08:18;98862.91;;;-5.77;92.59
8894;BME280;4483;48.622;9.230;2024-01-11T05:10:44;98863.69;;;-5.78;92.16
8894;BME280;4483;48.622;9.230;2024-01-11T05:13:11;98867.06;;;-5.78;92.08
8894;BME280;4483;48.622;9.230;2024-01-11T05:15:39;98862.00;;;-5.79;92.32
8894;BME280;4483;48.622;9.230;2024-01-11T05:18:06;98872.00;;;-5.81;92.84
8894;BME280;4483;48.622;9.230;2024-01-11T05:20:32;98871.94;;;-5.82;92.83
8894;BME280;4483;48.622;9.230;2024-01-11T05:22:59;98870.19;;;-5.85;92.45
8894;BME280;4483;48.622;9.230;2024-01-11T05:25:26;98879.28;;;-5.87;91.96
8894;BME280;4483;48.622;9.230;2024-01-11T05:27:53;98875.88;;;-5.89;92.14
8894;BME280;4483;48.622;9.230;2024-01-11T05:30:20;98880.78;;;-5.92;91.88
8894;BME280;4483;48.622;9.230;2024-01-11T05:32:48;98873.97;;;-5.94;92.49
8894;BME280;4483;48.622;9.230;2024-01-11T05:35:14;98881.50;;;-5.94;92.67
8894;BME280;4483;48.622;9.230;2024-01-11T05:37:41;98879.78;;;-5.95;92.67
8894;BME280;4483;48.622;9.230;2024-01-11T05:40:08;98876.47;;;-5.94;92.80
8894;BME280;4483;48.622;9.230;2024-01-11T05:42:35;98880.72;;;-5.93;92.50
8894;BME280;4483;48.622;9.230;2024-01-11T05:45:03;98889.88;;;-5.94;92.71
8894;BME280;4483;48.622;9.230;2024-01-11T05:47:30;98899.13;;;-5.93;92.61
8894;BME280;4483;48.622;9.230;2024-01-11T05:49:58;98907.41;;;-5.95;91.89
8894;BME280;4483;48.622;9.230;2024-01-11T05:52:24;98906.41;;;-5.99;92.08
8894;BME280;4483;48.622;9.230;2024-01-11T05:54:51;98911.44;;;-5.99;91.83
8894;BME280;4483;48.622;9.230;2024-01-11T05:57:18;98904.56;;;-6.03;92.68
8894;BME280;4483;48.622;9.230;2024-01-11T05:59:45;98908.72;;;-6.03;92.36
8894;BME280;4483;48.622;9.230;2024-01-11T06:02:12;98919.03;;;-5.97;92.72
8894;BME280;4483;48.622;9.230;2024-01-11T06:04:39;98919.88;;;-5.97;91.98
8894;BME280;4483;48.622;9.230;2024-01-11T06:07:07;98924.16;;;-5.94;92.17
8894;BME280;4483;48.622;9.230;2024-01-11T06:09:34;98923.28;;;-5.95;91.61
8894;BME280;4483;48.622;9.230;2024-01-11T06:12:00;98937.50;;;-5.95;91.66
8894;BME280;4483;48.622;9.230;2024-01-11T06:14:27;98926.59;;;-5.96;92.54
8894;BME280;4483;48.622;9.230;2024-01-11T06:16:54;98931.63;;;-5.96;92.45
8894;BME280;4483;48.622;9.230;2024-01-11T06:19:20;98936.53;;;-5.99;91.78
8894;BME280;4483;48.622;9.230;2024-01-11T06:21:47;98929.78;;;-6.00;91.94
8894;BME280;4483;48.622;9.230;2024-01-11T06:24:15;98928.06;;;-6.01;91.25
8894;BME280;4483;48.622;9.230;2024-01-11T06:26:41;98934.63;;;-6.04;91.71
8894;BME280;4483;48.622;9.230;2024-01-11T06:29:08;98937.13;;;-6.04;91.55
8894;BME280;4483;48.622;9.230;2024-01-11T06:31:35;98930.38;;;-6.05;92.33
8894;BME280;4483;48.622;9.230;2024-01-11T06:34:01;98923.59;;;-6.08;91.31
8894;BME280;4483;48.622;9.230;2024-01-11T06:36:29;98921.09;;;-6.08;91.46
8894;BME280;4483;48.622;9.230;2024-01-11T06:38:56;98931.91;;;-6.09;91.58
8894;BME280;4483;48.622;9.230;2024-01-11T06:41:24;98925.19;;;-6.10;91.66
8894;BME280;4483;48.622;9.230;2024-01-11T06:43:50;98919.25;;;-6.12;92.38
8894;BME280;4483;48.622;9.230;2024-01-11T06:46:19;98922.53;;;-6.13;92.33
8894;BME280;4483;48.622;9.230;2024-01-11T06:48:46;98930.88;;;-6.14;91.49
8894;BME280;4483;48.622;9.230;2024-01-11T06:51:14;98940.91;;;-6.14;92.18
8894;BME280;4483;48.622;9.230;2024-01-11T06:53:41;98932.72;;;-6.10;92.00
8894;BME280;4483;48.622;9.230;2024-01-11T06:56:14;98939.16;;;-6.15;91.08
8894;BME280;4483;48.622;9.230;2024-01-11T06:58:42;98944.78;;;-6.21;90.94
8894;BME280;4483;48.622;9.230;2024-01-11T07:01:09;98941.34;;;-6.23;92.29
8894;BME280;4483;48.622;9.230;2024-01-11T07:03:36;98938.66;;;-6.27;91.18
8894;BME280;4483;48.622;9.230;2024-01-11T07:06:03;98941.19;;;-6.27;91.37
8894;BME280;4483;48.622;9.230;2024-01-11T07:08:30;98941.88;;;-6.30;92.21
8894;BME280;4483;48.622;9.230;2024-01-11T07:10:57;98960.91;;;-6.35;90.98
8894;BME280;4483;48.622;9.230;2024-01-11T07:13:24;98956.53;;;-6.39;91.94
8894;BME280;4483;48.622;9.230;2024-01-11T07:15:52;98964.72;;;-6.43;91.72
8894;BME280;4483;48.622;9.230;2024-01-11T07:18:20;98964.66;;;-6.44;91.99
8894;BME280;4483;48.622;9.230;2024-01-11T07:20:47;98951.88;;;-6.50;92.36
8894;BME280;4483;48.622;9.230;2024-01-11T07:23:14;98970.25;;;-6.50;92.09
8894;BME280;4483;48.622;9.230;2024-01-11T07:25:40;98971.84;;;-6.52;90.94
8894;BME280;4483;48.622;9.230;2024-01-11T07:28:07;98977.66;;;-6.53;90.59
8894;BME280;4483;48.622;9.230;2024-01-11T07:30:34;98991.06;;;-6.52;90.65
8894;BME280;4483;48.622;9.230;2024-01-11T07:33:02;98992.00;;;-6.50;91.28
8894;BME280;4483;48.622;9.230;2024-01-11T07:35:30;98987.75;;;-6.51;92.16
8894;BME280;4483;48.622;9.230;2024-01-11T07:37:56;98983.53;;;-6.52;91.84
8894;BME280;4483;48.622;9.230;2024-01-11T07:40:23;98984.31;;;-6.53;92.03
8894;BME280;4483;48.622;9.230;2024-01-11T07:42:49;98977.78;;;-6.50;91.62
8894;BME280;4483;48.622;9.230;2024-01-11T07:45:16;98966.63;;;-6.37;90.94
8894;BME280;4483;48.622;9.230;2024-01-11T07:47:44;98976.19;;;-6.09;91.70
8894;BME280;4483;48.622;9.230;2024-01-11T07:50:12;98969.91;;;-5.79;92.04
8894;BME280;4483;48.622;9.230;2024-01-11T07:52:39;98958.56;;;-5.49;91.70
8894;BME280;4483;48.622;9.230;2024-01-11T07:55:07;98975.66;;;-5.20;90.10
8894;BME280;4483;48.622;9.230;2024-01-11T07:57:35;98976.66;;;-4.94;90.23
8894;BME280;4483;48.622;9.230;2024-01-11T08:00:04;98980.06;;;-4.70;89.38
8894;BME280;4483;48.622;9.230;2024-01-11T08:02:32;98996.75;;;-4.50;89.46
8894;BME280;4483;48.622;9.230;2024-01-11T08:04:59;98998.25;;;-4.32;88.44
8894;BME280;4483;48.622;9.230;2024-01-11T08:07:27;99000.59;;;-4.14;88.71
8894;BME280;4483;48.622;9.230;2024-01-11T08:09:54;99002.88;;;-3.96;87.00
8894;BME280;4483;48.622;9.230;2024-01-11T08:12:21;98998.50;;;-3.77;87.40
8894;BME280;4483;48.622;9.230;2024-01-11T08:14:48;98994.38;;;-3.50;86.49
8894;BME280;4483;48.622;9.230;2024-01-11T08:17:15;98991.94;;;-3.22;86.58
8894;BME280;4483;48.622;9.230;2024-01-11T08:19:42;99003.69;;;-2.95;85.63
8894;BME280;4483;48.622;9.230;2024-01-11T08:22:09;99019.47;;;-2.74;84.24
8894;BME280;4483;48.622;9.230;2024-01-11T08:24:37;99029.22;;;-2.58;83.46
8894;BME280;4483;48.622;9.230;2024-01-11T08:27:04;99042.50;;;-2.36;83.36
8894;BME280;4483;48.622;9.230;2024-01-11T08:29:31;99038.22;;;-2.09;83.82
8894;BME280;4483;48.622;9.230;2024-01-11T08:31:58;99032.91;;;-1.88;82.76
8894;BME280;4483;48.622;9.230;2024-01-11T08:34:26;99022.53;;;-1.67;81.25
8894;BME280;4483;48.622;9.230;2024-01-11T08:36:53;99020.44;;;-1.51;80.12
8894;BME280;4483;48.622;9.230;2024-01-11T08:39:19;99018.41;;;-1.30;80.73
8894;BME280;4483;48.622;9.230;2024-01-11T08:41:48;99025.88;;;-1.02;80.34
8894;BME280;4483;48.622;9.230;2024-01-11T08:44:14;99041.63;;;-0.77;79.02
8894;BME280;4483;48.622;9.230;2024-01-11T08:46:43;99040.41;;;-0.56;79.39
8894;BME280;4483;48.622;9.230;2024-01-11T08:49:10;99033.31;;;-0.33;78.95
8894;BME280;4483;48.622;9.230;2024-01-11T08:51:36;99035.53;;;-0.08;78.20
8894;BME280;4483;48.622;9.230;2024-01-11T08:54:03;99029.16;;;0.12;77.23
8894;BME280;4483;48.622;9.230;2024-01-11T08:56:34;99028.63;;;0.28;77.20
8894;BME280;4483;48.622;9.230;2024-01-11T08:59:02;99024.78;;;0.48;75.94
8894;BME280;4483;48.622;9.230;2024-01-11T09:01:28;99028.50;;;0.68;75.59
8894;BME280;4483;48.622;9.230;2024-01-11T09:03:55;99028.88;;;0.89;75.49
8894;BME280;4483;48.622;9.230;2024-01-11T09:06:23;99031.72;;;1.09;74.61
8894;BME280;4483;48.622;9.230;2024-01-11T09:08:50;99026.88;;;1.23;73.98
8894;BME280;4483;48.622;9.230;2024-01-11T09:11:17;99036.47;;;1.45;73.28
8894;BME280;4483;48.622;9.230;2024-01-11T09:13:44;99033.34;;;1.61;73.32
8894;BME280;4483;48.622;9.230;2024-01-11T09:16:15;99028.50;;;1.79;71.52
8894;BME280;4483;48.622;9.230;2024-01-11T09:18:42;99017.69;;;1.95;71.25
8894;BME280;4483;48.622;9.230;2024-01-11T09:21:09;99022.94;;;2.09;70.85
8894;BME280;4483;48.622;9.230;2024-01-11T09:23:35;99008.69;;;2.21;70.94
8894;BME280;4483;48.622;9.230;2024-01-11T09:26:02;99005.47;;;2.40;70.61
8894;BME280;4483;48.622;9.230;2024-01-11T09:28:29;99008.25;;;2.64;69.84
8894;BME280;4483;48.622;9.230;2024-01-11T09:30:55;99014.38;;;2.84;69.35
8894;BME280;4483;48.622;9.230;2024-01-11T09:33:26;99012.81;;;3.03;67.67
8894;BME280;4483;48.622;9.230;2024-01-11T09:35:53;99012.94;;;3.20;68.57
8894;BME280;4483;48.622;9.230;2024-01-11T09:38:19;99014.78;;;3.39;68.46
8894;BME280;4483;48.622;9.230;2024-01-11T09:40:47;99010.63;;;3.50;67.97
8894;BME280;4483;48.622;9.230;2024-01-11T09:43:15;98997.06;;;3.63;67.31
8894;BME280;4483;48.622;9.230;2024-01-11T09:45:42;99006.47;;;3.76;66.44
8894;BME280;4483;48.622;9.230;2024-01-11T09:48:09;99004.00;;;3.89;66.37
8894;BME280;4483;48.622;9.230;2024-01-11T09:50:39;99020.22;;;4.05;66.10
8894;BME280;4483;48.622;9.230;2024-01-11T09:53:07;99016.84;;;4.06;64.39
8894;BME280;4483;48.622;9.230;2024-01-11T09:55:34;99014.31;;;4.18;64.21
8894;BME280;4483;48.622;9.230;2024-01-11T09:58:02;99001.56;;;4.20;63.78
8894;BME280;4483;48.622;9.230;2024-01-11T10:00:30;99022.03;;;4.42;61.98
8894;BME280;4483;48.622;9.230;2024-01-11T10:02:57;99015.25;;;4.50;63.12
8894;BME280;4483;48.622;9.230;2024-01-11T10:05:24;99008.44;;;4.58;63.19
8894;BME280;4483;48.622;9.230;2024-01-11T10:07:53;99016.16;;;4.70;62.50
8894;BME280;4483;48.622;9.230;2024-01-11T10:10:19;99002.53;;;4.80;62.84
8894;BME280;4483;48.622;9.230;2024-01-11T10:12:47;98997.41;;;4.88;62.28
8894;BME280;4483;48.622;9.230;2024-01-11T10:15:14;99009.34;;;4.98;61.88
8894;BME280;4483;48.622;9.230;2024-01-11T10:17:41;99008.47;;;5.09;62.03
8894;BME280;4483;48.622;9.230;2024-01-11T10:20:10;99005.09;;;5.20;60.78
8894;BME280;4483;48.622;9.230;2024-01-11T10:22:39;98989.75;;;5.23;61.18
8894;BME280;4483;48.622;9.230;2024-01-11T10:25:11;98998.28;;;5.29;60.70
8894;BME280;4483;48.622;9.230;2024-01-11T10:27:39;98988.03;;;5.31;60.49
8894;BME280;4483;48.622;9.230;2024-01-11T10:30:07;98977.78;;;5.37;60.09
8894;BME280;4483;48.622;9.230;2024-01-11T10:32:34;98979.50;;;5.45;59.54
8894;BME280;4483;48.622;9.230;2024-01-11T10:35:01;98974.34;;;5.48;59.56
8894;BME280;4483;48.622;9.230;2024-01-11T10:37:30;98982.00;;;5.59;59.22
8894;BME280;4483;48.622;9.230;2024-01-11T10:40:01;98996.47;;;5.63;58.40
8894;BME280;4483;48.622;9.230;2024-01-11T10:42:31;98978.59;;;5.66;58.37
8894;BME280;4483;48.622;9.230;2024-01-11T10:45:03;98976.84;;;5.72;58.30
8894;BME280;4483;48.622;9.230;2024-01-11T10:47:30;98972.56;;;5.80;57.53
8894;BME280;4483;48.622;9.230;2024-01-11T10:49:57;98975.13;;;5.85;56.69
8894;BME280;4483;48.622;9.230;2024-01-11T10:52:28;98968.31;;;5.85;55.88
8894;BME280;4483;48.622;9.230;2024-01-11T10:54:58;98968.28;;;5.91;57.20
8894;BME280;4483;48.622;9.230;2024-01-11T10:57:26;98968.25;;;6.00;57.09
8894;BME280;4483;48.622;9.230;2024-01-11T10:59:55;98965.63;;;6.11;56.48
8894;BME280;4483;48.622;9.230;2024-01-11T11:02:22;98964.75;;;6.18;56.31
8894;BME280;4483;48.622;9.230;2024-01-11T11:04:51;98969.00;;;6.22;56.46
8894;BME280;4483;48.622;9.230;2024-01-11T11:07:18;98974.91;;;6.30;56.42
8894;BME280;4483;48.622;9.230;2024-01-11T11:09:46;98969.75;;;6.36;56.09
8894;BME280;4483;48.622;9.230;2024-01-11T11:12:16;98963.72;;;6.46;56.36
8894;BME280;4483;48.622;9.230;2024-01-11T11:14:46;98975.56;;;6.62;55.67
8894;BME280;4483;48.622;9.230;2024-01-11T11:17:16;98971.22;;;6.72;54.81
8894;BME280;4483;48.622;9.230;2024-01-11T11:19:42;98974.63;;;6.71;54.17
8894;BME280;4483;48.622;9.230;2024-01-11T11:22:12;98968.75;;;6.60;53.99
8894;BME280;4483;48.622;9.230;2024-01-11T11:24:40;98975.56;;;6.59;54.80
8894;BME280;4483;48.622;9.230;2024-01-11T11:27:07;98980.69;;;6.59;54.21
8894;BME280;4483;48.622;9.230;2024-01-11T11:29:34;98978.19;;;6.53;55.01
8894;BME280;4483;48.622;9.230;2024-01-11T11:32:02;98981.56;;;6.54;54.89
8894;BME280;4483;48.622;9.230;2024-01-11T11:34:43;98978.97;;;6.64;54.85
8894;BME280;4483;48.622;9.230;2024-01-11T11:37:10;98964.38;;;6.75;54.46
8894;BME280;4483;48.622;9.230;2024-01-11T11:39:37;98967.69;;;6.86;53.83
8894;BME280;4483;48.622;9.230;2024-01-11T11:42:05;98960.84;;;6.88;53.21
8894;BME280;4483;48.622;9.230;2024-01-11T11:44:33;98971.91;;;6.93;53.23
8894;BME280;4483;48.622;9.230;2024-01-11T11:47:20;98977.00;;;6.96;53.93
8894;BME280;4483;48.622;9.230;2024-01-11T11:50:03;98978.63;;;7.03;53.84
8894;BME280;4483;48.622;9.230;2024-01-11T11:52:32;98975.38;;;6.86;52.71
8894;BME280;4483;48.622;9.230;2024-01-11T11:54:59;98964.22;;;6.93;53.26
8894;BME280;4483;48.622;9.230;2024-01-11T11:57:27;98954.84;;;6.89;53.30
8894;BME280;4483;48.622;9.230;2024-01-11T11:59:55;98946.28;;;6.93;53.65
8894;BME280;4483;48.622;9.230;2024-01-11T12:02:23;98935.97;;;7.02;53.25
8894;BME280;4483;48.622;9.230;2024-01-11T12:04:51;98930.03;;;6.97;52.84
8894;BME280;4483;48.622;9.230;2024-01-11T12:07:19;98922.34;;;6.94;53.03
8894;BME280;4483;48.622;9.230;2024-01-11T12:09:47;98929.97;;;7.02;53.35
8894;BME280;4483;48.622;9.230;2024-01-11T12:12:13;98927.31;;;7.12;53.37
8894;BME280;4483;48.622;9.230;2024-01-11T12:14:41;98933.19;;;7.25;53.03
8894;BME280;4483;48.622;9.230;2024-01-11T12:17:08;98921.19;;;7.29;52.97
8894;BME280;4483;48.622;9.230;2024-01-11T12:19:35;98916.09;;;7.24;51.86
8894;BME280;4483;48.622;9.230;2024-01-11T12:22:02;98898.31;;;7.07;51.51
8894;BME280;4483;48.622;9.230;2024-01-11T12:24:30;98892.38;;;7.04;52.21
8894;BME280;4483;48.622;9.230;2024-01-11T12:26:59;98906.97;;;6.97;51.92
8894;BME280;4483;48.622;9.230;2024-01-11T12:29:28;98903.63;;;6.88;52.56
8894;BME280;4483;48.622;9.230;2024-01-11T12:31:56;98907.06;;;6.88;51.57
8894;BME280;4483;48.622;9.230;2024-01-11T12:34:22;98898.44;;;6.92;52.30
8894;BME280;4483;48.622;9.230;2024-01-11T12:36:50;98892.34;;;7.05;53.06
8894;BME280;4483;48.622;9.230;2024-01-11T12:39:19;98887.88;;;7.24;52.78
8894;BME280;4483;48.622;9.230;2024-01-11T12:41:49;98887.72;;;7.41;52.63
8894;BME280;4483;48.622;9.230;2024-01-11T12:44:17;98885.84;;;7.53;52.30
8894;BME280;4483;48.622;9.230;2024-01-11T12:46:44;98893.38;;;7.67;51.96
8894;BME280;4483;48.622;9.230;2024-01-11T12:49:11;98888.22;;;7.68;51.57
8894;BME280;4483;48.622;9.230;2024-01-11T12:51:37;98897.59;;;7.69;50.68
8894;BME280;4483;48.622;9.230;2024-01-11T12:54:10;98889.94;;;7.68;51.77
8894;BME280;4483;48.622;9.230;2024-01-11T12:56:40;98879.63;;;7.72;51.71
8894;BME280;4483;48.622;9.230;2024-01-11T12:59:09;98887.28;;;7.75;51.07
8894;BME280;4483;48.622;9.230;2024-01-11T13:01:38;98894.41;;;7.54;50.45
8894;BME280;4483;48.622;9.230;2024-01-11T13:04:04;98885.13;;;7.41;51.77
8894;BME280;4483;48.622;9.230;2024-01-11T13:06:31;98890.28;;;7.41;51.86
8894;BME280;4483;48.622;9.230;2024-01-11T13:09:00;98885.16;;;7.39;51.57
8894;BME280;4483;48.622;9.230;2024-01-11T13:11:27;98892.88;;;7.38;51.74
8894;BME280;4483;48.622;9.230;2024-01-11T13:13:54;98879.06;;;7.48;51.87
8894;BME280;4483;48.622;9.230;2024-01-11T13:16:24;98878.13;;;7.56;52.16
8894;BME280;4483;48.622;9.230;2024-01-11T13:18:51;98879.75;;;7.63;51.50
8894;BME280;4483;48.622;9.230;2024-01-11T13:21:18;98872.16;;;7.56;51.44
8894;BME280;4483;48.622;9.230;2024-01-11T13:23:44;98870.44;;;7.56;51.74
8894;BME280;4483;48.622;9.230;2024-01-11T13:26:11;98873.81;;;7.60;51.82